Novorossiysk, Russia
Current Conditions -  °F | °C
As of 5:30 AM on Tuesday 21 Oct 2014 (Local Time) from URKA Reporting Station
Broken Clouds Broken Clouds  
Wind Chill: 55°   Ceiling: 4100
Heat Index: 55°   Visibility: 6mi
Dew Point: 46°   Wind: 18mph
Humidity: 72%   Direction: 220°SW
Pressure: 29.94"   Gusts: 27mph
Location:  44.72°N, 37.77°E
Report Text: URKA 210230Z 22008G12MPS 9999 BKN041 BKN110 13/08 Q1014 NOSIGRMK QFE756/1008 SC070
Loading
Personal Weather Stations






























Interactive Weather Map
Tropical Storm Tracking
New forecast layout! Learn more

10-Day Weather Forecast

Advertisements
Track Severe Weather on mobile